East Amwell, New Jersey
Current Conditions -  °F | °C
As of 6:53 AM on Monday 26 Jan 2015 (Local Time) from KTTN Reporting Station
Overcast Overcast  
Wind Chill: 12°   Ceiling: 2800
Heat Index: 24°   Visibility: 10mi
Dew Point: 16°   Wind: 14mph
Humidity: 71%   Direction: 70°ENE
Pressure: 29.94"   Gusts: 23mph
Location:  40.4412°N, 74.8354°W
Report Text: KTTN 261153Z 07012G20KT 10SM SCT016 BKN028 OVC075 M04/M09 A2994 RMK AO2 SLP134 60000 T10441089 11022 21044 58006
Loading
Personal Weather Stations






























Interactive Weather Map New forecast layout! Learn more

10-Day Weather Forecast

Advertisements
Track Severe Weather on mobile